Time;durP1;ratioP1;P1;durP2;ratioP2;P2;SDS_P1;SDS_P2;PMS_P1;PMS_P2;Temp;Humidity;BMP_temperature;BMP_pressure;BME280_temperature;BME280_humidity;BME280_pressure;Samples;Min_cycle;Max_cycle;Signal;HPM_P1;HPM_P2
2022/11/04 00:02:01;;;;;;;9.95;5.30;;;11.00;99.90;;;;;;5052753;28;20130;-86
2022/11/04 00:04:28;;;;;;;10.63;6.18;;;11.00;99.90;;;;;;5069761;28;20032;-86
2022/11/04 00:06:56;;;;;;;9.30;5.47;;;11.00;99.90;;;;;;5053202;28;20060;-86
2022/11/04 00:09:26;;;;;;;9.57;5.90;;;11.10;99.90;;;;;;5069403;28;20122;-86
2022/11/04 00:14:38;;;;;;;10.80;5.57;;;11.00;99.90;;;;;;5071865;28;20415;-86
2022/11/04 00:17:22;;;;;;;11.95;5.45;;;11.00;99.90;;;;;;5085738;28;20052;-86
2022/11/04 00:33:24;;;;;;;7.95;4.85;;;11.10;99.90;;;;;;5082555;28;20428;-85
2022/11/04 00:33:49;;;;;;;8.27;4.78;;;11.10;99.90;;;;;;5058541;28;20132;-87
2022/11/04 00:36:16;;;;;;;8.65;4.80;;;11.10;99.90;;;;;;5068719;28;20041;-86
2022/11/04 00:38:43;;;;;;;11.38;5.10;;;11.10;99.90;;;;;;5068766;28;20092;-86
2022/11/04 00:41:25;;;;;;;11.13;4.80;;;11.10;99.90;;;;;;5068875;28;20140;-86
2022/11/04 00:43:57;;;;;;;11.52;5.00;;;11.00;99.90;;;;;;5069150;28;20041;-86
2022/11/04 00:46:24;;;;;;;8.68;5.30;;;11.00;99.90;;;;;;5070526;28;20099;-86
2022/11/04 00:48:50;;;;;;;8.48;5.55;;;11.10;99.90;;;;;;5089343;28;20041;-86
2022/11/04 00:51:18;;;;;;;9.57;4.95;;;11.00;99.90;;;;;;5089059;28;20045;-86
2022/11/04 00:53:45;;;;;;;9.05;5.10;;;11.00;99.90;;;;;;5089243;28;20072;-86
2022/11/04 00:56:11;;;;;;;11.18;4.72;;;11.00;99.90;;;;;;5088827;28;20468;-86
2022/11/04 00:58:38;;;;;;;10.23;4.70;;;11.00;99.90;;;;;;5072674;28;20045;-86
2022/11/04 01:01:16;;;;;;;7.88;4.50;;;11.00;99.90;;;;;;5089221;28;20491;-85
2022/11/04 01:03:48;;;;;;;7.88;4.72;;;11.00;99.90;;;;;;5119126;28;20045;-86
2022/11/04 01:06:15;;;;;;;10.18;4.53;;;11.00;99.90;;;;;;5072366;28;20045;-86
2022/11/04 01:08:42;;;;;;;9.52;3.88;;;11.00;99.90;;;;;;5056076;28;20456;-86
2022/11/04 01:11:10;;;;;;;6.93;4.15;;;11.00;99.90;;;;;;5088701;28;20076;-86
2022/11/04 01:13:37;;;;;;;6.60;4.22;;;10.90;99.90;;;;;;5088903;28;20041;-86
2022/11/04 01:16:07;;;;;;;7.15;3.67;;;11.00;99.90;;;;;;5105811;28;20040;-86
2022/11/04 01:18:34;;;;;;;5.45;3.00;;;10.90;99.90;;;;;;5086415;28;20108;-86
2022/11/04 01:21:05;;;;;;;5.78;3.05;;;10.90;99.90;;;;;;5085476;28;20038;-86
2022/11/04 01:23:33;;;;;;;6.10;3.10;;;10.90;99.90;;;;;;5085678;28;20074;-86
2022/11/04 01:26:03;;;;;;;4.75;2.80;;;10.80;99.90;;;;;;5085515;28;20114;-86
2022/11/04 01:28:29;;;;;;;4.68;2.50;;;10.80;99.90;;;;;;5052070;28;20073;-86
2022/11/04 01:30:56;;;;;;;5.65;2.70;;;10.80;99.90;;;;;;5082929;28;20058;-86
2022/11/04 01:33:23;;;;;;;5.10;2.45;;;10.80;99.90;;;;;;5085218;28;20134;-86
2022/11/04 01:35:51;;;;;;;10.43;2.60;;;10.70;99.90;;;;;;5070563;28;20044;-86
2022/11/04 01:38:18;;;;;;;5.50;2.05;;;10.80;99.90;;;;;;5071784;28;20404;-86
2022/11/04 01:40:44;;;;;;;6.22;2.03;;;10.60;99.90;;;;;;5071909;28;20762;-86
2022/11/04 01:43:17;;;;;;;4.63;2.08;;;10.60;99.90;;;;;;5105156;28;20179;-85
2022/11/04 01:45:47;;;;;;;4.60;2.08;;;10.60;99.90;;;;;;5105401;28;20047;-86
2022/11/04 01:48:21;;;;;;;3.47;1.73;;;10.50;99.90;;;;;;5071725;28;20122;-86
2022/11/04 01:50:50;;;;;;;4.40;1.50;;;10.50;99.90;;;;;;5071809;28;20095;-86
2022/11/04 01:53:25;;;;;;;4.55;1.40;;;10.50;99.90;;;;;;5071330;28;20120;-86
2022/11/04 01:55:56;;;;;;;1.93;1.10;;;10.40;99.90;;;;;;5072328;28;20041;-86
2022/11/04 01:58:26;;;;;;;1.52;0.85;;;10.40;99.90;;;;;;5064240;28;20037;-86
2022/11/04 02:00:53;;;;;;;4.93;1.35;;;10.30;99.90;;;;;;5069047;28;20041;-86
2022/11/04 02:03:25;;;;;;;3.75;0.98;;;10.40;99.90;;;;;;5069073;28;20041;-86
2022/11/04 02:05:53;;;;;;;2.38;1.00;;;10.30;99.90;;;;;;5071877;28;20507;-87
2022/11/04 02:08:20;;;;;;;2.55;0.90;;;10.30;99.90;;;;;;5055052;28;20063;-86
2022/11/04 02:11:05;;;;;;;2.17;1.00;;;10.30;99.90;;;;;;5038895;28;20068;-87
2022/11/04 02:13:35;;;;;;;2.10;1.15;;;10.30;99.90;;;;;;5054879;28;20063;-86
2022/11/04 02:16:36;;;;;;;2.15;0.60;;;10.30;99.90;;;;;;5055224;28;20037;-87
2022/11/04 02:19:50;;;;;;;1.70;0.60;;;10.30;99.90;;;;;;5071314;28;20055;-86
2022/11/04 02:22:30;;;;;;;1.45;0.63;;;10.20;99.90;;;;;;5070688;28;20502;-86
2022/11/04 02:25:12;;;;;;;2.63;0.60;;;10.20;99.90;;;;;;5118629;28;20044;-86
2022/11/04 02:27:51;;;;;;;0.55;0.45;;;10.20;99.90;;;;;;5070708;28;20041;-87
2022/11/04 02:30:20;;;;;;;5.38;0.77;;;10.20;99.90;;;;;;5095459;28;20049;-87
2022/11/04 02:32:46;;;;;;;2.38;0.80;;;10.20;99.90;;;;;;5084286;28;20453;-86
2022/11/04 02:35:27;;;;;;;4.47;0.75;;;10.20;99.90;;;;;;5085048;28;20041;-86
2022/11/04 02:38:13;;;;;;;3.92;0.65;;;10.20;99.90;;;;;;5071570;28;20037;-87
2022/11/04 02:40:57;;;;;;;0.60;0.38;;;10.20;99.90;;;;;;5070508;28;20057;-87
2022/11/04 02:43:29;;;;;;;4.63;0.50;;;10.20;99.90;;;;;;5070816;28;20037;-86
2022/11/04 02:46:00;;;;;;;1.00;0.40;;;10.20;99.90;;;;;;5071035;28;20037;-87
2022/11/04 02:48:47;;;;;;;2.70;0.50;;;10.20;99.90;;;;;;5083306;28;20041;-87
2022/11/04 02:51:38;;;;;;;2.00;0.50;;;10.10;99.90;;;;;;5086459;28;20037;-86
2022/11/04 02:54:29;;;;;;;2.10;0.40;;;10.20;99.90;;;;;;5067477;28;20045;-87
2022/11/04 02:57:00;;;;;;;2.13;0.35;;;10.20;99.90;;;;;;5066452;28;20049;-85
2022/11/04 02:59:41;;;;;;;1.42;0.60;;;10.10;99.90;;;;;;5066705;28;20041;-86
2022/11/04 03:02:13;;;;;;;4.72;0.75;;;10.20;99.90;;;;;;5115882;28;20064;-86
2022/11/04 03:04:44;;;;;;;2.72;0.90;;;10.20;99.90;;;;;;5070090;28;20040;-86
2022/11/04 03:07:14;;;;;;;3.83;0.63;;;10.20;99.90;;;;;;5069960;28;20378;-85
2022/11/04 03:09:46;;;;;;;2.33;0.63;;;10.20;99.90;;;;;;5120095;28;20052;-86
2022/11/04 03:12:18;;;;;;;1.73;0.50;;;10.20;99.90;;;;;;5070091;28;20048;-85
2022/11/04 03:14:51;;;;;;;2.50;0.70;;;10.20;99.90;;;;;;5070005;28;20044;-86
2022/11/04 03:17:35;;;;;;;1.08;0.57;;;10.20;99.90;;;;;;5120001;28;20057;-85
2022/11/04 03:20:08;;;;;;;1.88;0.60;;;10.20;99.90;;;;;;5103339;28;20045;-86
2022/11/04 03:22:38;;;;;;;0.65;0.45;;;10.20;99.90;;;;;;5069303;28;20048;-86
2022/11/04 03:25:07;;;;;;;1.42;0.55;;;10.20;99.90;;;;;;5069909;28;20062;-85
2022/11/04 03:27:59;;;;;;;2.85;0.57;;;10.20;99.90;;;;;;5069637;28;20082;-86
2022/11/04 03:30:35;;;;;;;1.27;0.40;;;10.20;99.90;;;;;;5119857;28;20040;-85
2022/11/04 03:33:17;;;;;;;2.17;0.77;;;10.20;99.90;;;;;;5069888;28;20128;-85
2022/11/04 03:35:43;;;;;;;1.05;0.40;;;10.20;99.90;;;;;;5102645;28;20044;-85
2022/11/04 03:38:10;;;;;;;1.48;0.45;;;10.20;99.90;;;;;;5086304;28;20041;-85
2022/11/04 03:40:37;;;;;;;1.17;0.38;;;10.20;99.90;;;;;;5069036;28;20063;-85
2022/11/04 03:43:11;;;;;;;1.70;0.20;;;10.20;99.90;;;;;;5085778;28;20041;-85
2022/11/04 03:45:40;;;;;;;2.22;0.47;;;10.20;99.90;;;;;;5069500;28;20041;-85
2022/11/04 03:48:07;;;;;;;0.65;0.30;;;10.20;99.90;;;;;;5069580;28;20059;-85
2022/11/04 03:50:42;;;;;;;0.73;0.20;;;10.20;99.90;;;;;;5069159;28;20072;-85
2022/11/04 03:53:11;;;;;;;2.90;0.30;;;10.20;99.90;;;;;;5069920;28;20041;-85
2022/11/04 03:56:15;;;;;;;1.02;0.30;;;10.20;99.90;;;;;;5102536;28;20394;-87
2022/11/04 03:59:03;;;;;;;0.45;0.30;;;10.10;99.90;;;;;;5102624;28;20102;-87
2022/11/04 04:01:38;;;;;;;0.32;0.20;;;10.20;99.90;;;;;;5102240;28;20045;-85
2022/11/04 04:04:19;;;;;;;0.52;0.30;;;10.20;99.90;;;;;;5119500;28;20120;-87
2022/11/04 04:06:47;;;;;;;2.35;0.40;;;10.10;99.90;;;;;;5102623;28;20037;-87
2022/11/04 04:09:22;;;;;;;0.45;0.28;;;10.10;99.90;;;;;;5069288;28;20041;-86
2022/11/04 04:12:09;;;;;;;0.90;0.35;;;10.10;99.90;;;;;;5069138;28;20501;-86
2022/11/04 04:14:53;;;;;;;3.63;0.40;;;10.10;99.90;;;;;;5068989;28;20048;-87
2022/11/04 04:17:34;;;;;;;0.57;0.35;;;10.10;99.90;;;;;;5068897;28;20118;-86
2022/11/04 04:20:14;;;;;;;0.47;0.30;;;10.00;99.90;;;;;;5102802;28;20045;-86
2022/11/04 04:22:47;;;;;;;1.40;0.20;;;10.10;99.90;;;;;;5123172;28;20048;-86
2022/11/04 04:28:03;;;;;;;1.33;0.25;;;10.00;99.90;;;;;;5123827;28;20047;-86
2022/11/04 04:30:30;;;;;;;1.98;0.40;;;10.00;99.90;;;;;;5106548;28;20041;-86
2022/11/04 04:33:10;;;;;;;1.17;0.30;;;10.10;99.90;;;;;;5089480;28;20047;-86
2022/11/04 04:35:46;;;;;;;1.35;0.45;;;10.10;99.90;;;;;;5073061;28;20036;-86
2022/11/04 04:47:22;;;;;;;1.15;0.60;;;10.10;99.90;;;;;;5123216;28;20045;-86
2022/11/04 04:49:56;;;;;;;0.65;0.35;;;10.00;99.90;;;;;;5073064;28;20033;-86
2022/11/04 04:52:25;;;;;;;0.70;0.60;;;10.10;99.90;;;;;;5122949;28;20049;-86
2022/11/04 04:54:52;;;;;;;0.73;0.32;;;10.00;99.90;;;;;;5089047;28;20063;-86
2022/11/04 04:57:19;;;;;;;0.30;0.20;;;10.00;99.90;;;;;;5105901;28;20128;-86
2022/11/04 04:59:45;;;;;;;0.73;0.40;;;10.00;99.90;;;;;;5089022;28;20037;-85
2022/11/04 05:02:12;;;;;;;0.30;0.30;;;9.90;99.90;;;;;;5088740;28;20041;-86
2022/11/04 05:04:39;;;;;;;1.17;0.43;;;9.90;99.90;;;;;;5072221;28;20040;-86
2022/11/04 05:07:06;;;;;;;2.40;0.50;;;9.90;99.90;;;;;;5089048;28;20409;-85
2022/11/04 05:09:33;;;;;;;1.38;0.50;;;9.90;99.90;;;;;;5088868;28;20044;-85
2022/11/04 05:12:00;;;;;;;0.38;0.25;;;9.80;99.90;;;;;;5071947;28;20421;-85
2022/11/04 05:14:28;;;;;;;3.38;0.50;;;9.80;99.90;;;;;;5088701;28;20578;-85
2022/11/04 05:16:54;;;;;;;2.53;0.60;;;9.80;99.90;;;;;;5121922;28;20516;-85
2022/11/04 05:19:21;;;;;;;2.08;0.60;;;9.80;99.90;;;;;;5071852;28;20048;-85
2022/11/04 05:21:48;;;;;;;0.88;0.38;;;9.80;99.90;;;;;;5088004;28;20497;-84
2022/11/04 05:24:15;;;;;;;2.55;0.60;;;9.70;99.90;;;;;;5072272;28;20115;-85
2022/11/04 05:26:42;;;;;;;0.70;0.50;;;9.70;99.90;;;;;;5104977;28;20044;-85
2022/11/04 05:29:09;;;;;;;0.57;0.35;;;9.70;99.90;;;;;;5088593;28;20033;-85
2022/11/04 05:31:35;;;;;;;3.83;0.60;;;9.70;99.90;;;;;;5088426;28;20116;-86
2022/11/04 05:34:04;;;;;;;1.58;0.60;;;9.70;99.90;;;;;;5088392;28;20041;-85
2022/11/04 05:36:32;;;;;;;2.17;0.50;;;9.70;99.90;;;;;;5088445;28;20045;-86
2022/11/04 05:38:58;;;;;;;3.15;0.60;;;9.90;99.90;;;;;;5087953;28;20551;-85
2022/11/04 05:41:25;;;;;;;3.83;1.35;;;9.70;99.90;;;;;;5088169;28;20045;-86
2022/11/04 05:43:58;;;;;;;1.15;0.57;;;9.70;99.90;;;;;;5105218;28;20120;-86
2022/11/04 05:46:25;;;;;;;1.67;0.43;;;9.60;99.90;;;;;;5071770;28;20747;-86
2022/11/04 05:48:52;;;;;;;1.92;0.40;;;9.60;99.90;;;;;;5104762;28;20120;-86
2022/11/04 05:51:21;;;;;;;1.30;0.20;;;9.60;99.90;;;;;;5088377;28;20052;-86
2022/11/04 05:53:48;;;;;;;0.98;0.40;;;9.60;99.90;;;;;;5071480;28;20052;-86
2022/11/04 05:56:15;;;;;;;2.15;0.30;;;9.50;99.90;;;;;;5088488;28;20037;-86
2022/11/04 05:58:41;;;;;;;0.82;0.40;;;9.50;99.90;;;;;;5057515;28;20043;-86
2022/11/04 06:01:31;;;;;;;6.03;0.40;;;9.50;99.90;;;;;;5060184;28;20041;-86
2022/11/04 06:03:59;;;;;;;1.23;0.40;;;9.40;99.90;;;;;;5071359;28;20037;-86
2022/11/04 06:06:30;;;;;;;0.80;0.30;;;9.30;99.90;;;;;;5113034;28;20056;-87
2022/11/04 06:08:57;;;;;;;2.38;0.35;;;9.30;99.90;;;;;;5098372;28;20095;-86
2022/11/04 06:11:26;;;;;;;0.73;0.25;;;9.30;99.90;;;;;;5071755;28;20076;-87
2022/11/04 06:13:53;;;;;;;0.38;0.30;;;9.20;99.90;;;;;;5055036;28;20045;-86
2022/11/04 06:16:21;;;;;;;0.55;0.40;;;9.10;99.90;;;;;;5088059;28;20474;-86
2022/11/04 06:18:47;;;;;;;1.05;0.30;;;9.20;99.90;;;;;;5070732;28;20053;-85
2022/11/04 06:21:14;;;;;;;1.02;0.20;;;9.10;99.90;;;;;;5071535;28;20100;-86
2022/11/04 06:23:42;;;;;;;1.10;0.22;;;9.10;99.90;;;;;;5104594;28;20067;-87
2022/11/04 06:26:09;;;;;;;0.77;0.40;;;9.10;99.90;;;;;;5103951;28;20087;-86
2022/11/04 06:28:37;;;;;;;1.92;0.40;;;9.00;99.90;;;;;;5090302;28;20098;-86
2022/11/04 06:31:06;;;;;;;1.98;0.50;;;9.00;99.90;;;;;;5104135;28;20223;-86
2022/11/04 06:33:33;;;;;;;0.75;0.32;;;9.00;99.90;;;;;;5120924;28;20079;-87
2022/11/04 06:36:03;;;;;;;1.23;0.20;;;9.00;99.90;;;;;;5070785;28;20076;-87
2022/11/04 06:38:39;;;;;;;2.40;0.43;;;9.00;99.90;;;;;;5070857;28;20044;-86
2022/11/04 06:41:08;;;;;;;0.57;0.35;;;8.90;99.90;;;;;;5086666;28;20047;-87
2022/11/04 06:43:34;;;;;;;2.17;0.68;;;8.90;99.90;;;;;;5070368;28;20048;-86
2022/11/04 06:46:02;;;;;;;2.08;0.40;;;8.90;99.90;;;;;;5087970;28;20037;-87
2022/11/04 06:48:30;;;;;;;0.88;0.40;;;9.30;99.90;;;;;;5100701;28;20093;-86
2022/11/04 06:50:58;;;;;;;5.85;0.50;;;9.00;99.90;;;;;;5095325;28;20040;-86
2022/11/04 06:53:25;;;;;;;0.73;0.40;;;9.00;99.90;;;;;;5082088;28;20052;-86
2022/11/04 06:55:59;;;;;;;4.45;0.30;;;9.00;99.90;;;;;;5094454;28;20036;-86
2022/11/04 06:58:25;;;;;;;3.60;0.50;;;9.00;99.90;;;;;;5073352;28;20165;-86
2022/11/04 07:00:52;;;;;;;1.50;0.40;;;9.10;99.90;;;;;;5049473;28;20115;-83
2022/11/04 07:03:19;;;;;;;0.47;0.30;;;9.00;99.90;;;;;;5097617;28;20037;-86
2022/11/04 07:05:46;;;;;;;1.58;0.70;;;9.10;99.90;;;;;;5053852;28;20033;-86
2022/11/04 07:08:12;;;;;;;4.30;1.00;;;9.10;99.90;;;;;;5039706;28;20955;-86
2022/11/04 07:10:39;;;;;;;2.97;1.08;;;9.10;99.90;;;;;;5058956;28;20066;-86
2022/11/04 07:13:06;;;;;;;5.32;1.40;;;9.20;99.90;;;;;;5078948;28;20032;-86
2022/11/04 07:15:33;;;;;;;11.85;1.45;;;9.20;99.90;;;;;;5079441;28;20127;-86
2022/11/04 07:17:59;;;;;;;1.95;1.00;;;9.20;99.90;;;;;;5062398;28;20064;-86
2022/11/04 07:20:26;;;;;;;2.50;0.88;;;9.20;99.90;;;;;;5059506;28;20044;-86
2022/11/04 07:22:53;;;;;;;1.50;0.68;;;9.20;99.90;;;;;;5063349;28;20095;-86
2022/11/04 07:25:20;;;;;;;3.78;0.70;;;9.10;99.90;;;;;;5120302;28;20048;-86
2022/11/04 07:27:47;;;;;;;1.38;0.50;;;9.10;99.90;;;;;;5086315;28;20075;-87
2022/11/04 07:30:13;;;;;;;1.95;0.65;;;9.10;99.90;;;;;;5086214;28;20041;-87
2022/11/04 07:32:40;;;;;;;2.90;1.00;;;9.10;99.90;;;;;;5071114;28;20041;-86
2022/11/04 07:35:07;;;;;;;2.08;0.70;;;9.10;99.90;;;;;;5070257;28;20513;-86
2022/11/04 07:37:34;;;;;;;2.85;0.80;;;9.00;99.90;;;;;;5069961;28;20101;-86
2022/11/04 07:40:00;;;;;;;4.22;0.65;;;9.00;99.90;;;;;;5036489;28;20039;-86
2022/11/04 07:42:27;;;;;;;2.53;0.60;;;9.10;99.90;;;;;;5045708;28;20036;-86
2022/11/04 07:44:54;;;;;;;1.88;0.65;;;9.00;99.90;;;;;;5056626;28;20405;-86
2022/11/04 07:47:21;;;;;;;1.42;0.75;;;9.00;99.90;;;;;;5069228;28;20052;-86
2022/11/04 07:49:47;;;;;;;0.85;0.50;;;9.00;99.90;;;;;;5052995;28;20064;-86
2022/11/04 07:52:14;;;;;;;2.60;0.68;;;9.10;99.90;;;;;;5052194;28;20041;-86
2022/11/04 07:54:41;;;;;;;1.55;0.65;;;9.10;99.90;;;;;;5053068;28;20045;-86
2022/11/04 07:57:07;;;;;;;3.50;0.85;;;9.10;99.90;;;;;;5066394;28;20052;-86
2022/11/04 07:59:34;;;;;;;1.30;0.60;;;9.00;99.90;;;;;;5061947;28;20115;-89
2022/11/04 08:02:01;;;;;;;3.47;0.60;;;9.00;99.90;;;;;;5069288;28;20116;-83
2022/11/04 08:04:27;;;;;;;1.02;0.60;;;8.90;99.90;;;;;;5103216;28;20043;-87
2022/11/04 08:06:54;;;;;;;8.02;0.88;;;8.90;99.90;;;;;;5072298;28;20090;-87
2022/11/04 08:09:22;;;;;;;3.40;1.10;;;8.90;99.90;;;;;;5044753;28;20072;-87
2022/11/04 08:11:48;;;;;;;1.63;0.70;;;8.90;99.90;;;;;;5068984;28;20040;-87
2022/11/04 08:14:15;;;;;;;1.20;0.60;;;8.90;99.90;;;;;;5056410;28;20484;-87
2022/11/04 08:16:42;;;;;;;1.60;0.75;;;9.20;99.90;;;;;;5106398;28;20055;-87
2022/11/04 08:19:08;;;;;;;1.23;0.63;;;8.90;99.90;;;;;;5072689;28;20110;-87
2022/11/04 08:21:35;;;;;;;3.38;0.60;;;9.00;99.90;;;;;;5073329;28;20036;-87
2022/11/04 08:24:03;;;;;;;3.53;0.75;;;9.00;99.90;;;;;;5056929;28;20055;-87
2022/11/04 08:26:30;;;;;;;1.35;0.70;;;9.10;99.90;;;;;;5072572;28;20056;-87
2022/11/04 08:28:58;;;;;;;1.75;0.60;;;9.10;99.90;;;;;;5057272;28;20040;-86
2022/11/04 08:31:27;;;;;;;1.30;0.63;;;9.10;99.90;;;;;;5079278;28;20079;-87
2022/11/04 08:33:55;;;;;;;2.38;0.60;;;9.10;99.90;;;;;;5088032;28;20091;-87
2022/11/04 08:36:27;;;;;;;2.15;0.82;;;9.10;99.90;;;;;;5078184;28;20108;-88
2022/11/04 08:38:55;;;;;;;2.35;1.00;;;9.20;99.90;;;;;;5085467;28;20041;-88
2022/11/04 08:41:25;;;;;;;4.03;1.02;;;9.20;99.90;;;;;;5064128;28;20500;-88
2022/11/04 08:43:52;;;;;;;3.13;0.82;;;9.30;99.90;;;;;;5086898;28;20037;-88
2022/11/04 08:46:19;;;;;;;2.85;0.90;;;9.30;99.90;;;;;;5036295;28;20043;-89
2022/11/04 08:48:45;;;;;;;2.65;0.70;;;9.40;99.90;;;;;;5064346;28;20045;-87
2022/11/04 08:51:32;;;;;;;2.53;1.10;;;9.40;99.90;;;;;;5084685;28;20132;-86
2022/11/04 08:53:59;;;;;;;3.15;0.80;;;9.40;99.90;;;;;;5068444;28;20041;-86
2022/11/04 08:56:33;;;;;;;2.17;0.80;;;9.40;99.90;;;;;;5051834;28;20051;-86
2022/11/04 08:59:03;;;;;;;3.10;0.60;;;9.50;99.90;;;;;;5068605;28;20045;-87
2022/11/04 09:01:32;;;;;;;3.25;0.80;;;9.50;99.90;;;;;;5068366;28;20041;-88
2022/11/04 09:03:59;;;;;;;3.63;0.80;;;9.60;99.90;;;;;;5091939;28;20050;-88
2022/11/04 09:06:35;;;;;;;2.83;0.80;;;9.60;99.90;;;;;;5058153;28;20037;-86
2022/11/04 09:09:04;;;;;;;1.67;0.77;;;9.70;99.90;;;;;;5111025;28;20474;-88
2022/11/04 09:11:32;;;;;;;2.00;0.80;;;9.70;99.90;;;;;;5059037;28;20047;-87
2022/11/04 09:14:03;;;;;;;1.40;0.60;;;9.80;99.90;;;;;;5072400;28;20513;-88
2022/11/04 09:16:32;;;;;;;4.43;0.88;;;9.90;99.90;;;;;;5054943;28;20048;-88
2022/11/04 09:18:59;;;;;;;1.50;0.70;;;9.90;99.90;;;;;;5075496;28;20467;-87
2022/11/04 09:21:26;;;;;;;1.15;0.73;;;9.90;99.90;;;;;;5117510;28;20041;-87
2022/11/04 09:23:54;;;;;;;1.65;0.45;;;10.00;99.90;;;;;;5064182;28;20239;-86
2022/11/04 09:26:22;;;;;;;4.15;0.80;;;10.00;99.90;;;;;;5089434;28;20043;-87
2022/11/04 09:28:54;;;;;;;2.25;0.55;;;10.00;99.90;;;;;;5051539;28;20101;-86
2022/11/04 09:31:21;;;;;;;3.63;1.05;;;10.10;99.90;;;;;;5085097;28;20083;-86
2022/11/04 09:33:49;;;;;;;3.00;1.10;;;10.30;99.90;;;;;;5088361;28;20049;-85
2022/11/04 09:36:16;;;;;;;4.68;0.98;;;10.20;99.90;;;;;;5071610;28;20044;-87
2022/11/04 09:38:43;;;;;;;8.10;1.00;;;10.30;99.90;;;;;;5041367;28;20045;-86
2022/11/04 09:41:38;;;;;;;7.65;0.90;;;10.40;99.90;;;;;;5051581;28;20053;-87
2022/11/04 09:44:32;;;;;;;2.33;0.73;;;10.40;99.90;;;;;;5052089;28;20037;-89
2022/11/04 09:47:01;;;;;;;4.75;0.85;;;10.40;99.90;;;;;;5051346;28;20045;-86
2022/11/04 09:49:34;;;;;;;2.60;1.25;;;10.40;99.90;;;;;;5067951;28;20039;-86
2022/11/04 09:52:07;;;;;;;4.60;0.80;;;10.50;99.90;;;;;;5051426;28;20119;-85
2022/11/04 09:55:14;;;;;;;1.90;0.90;;;10.50;99.90;;;;;;5050932;28;20410;-86
2022/11/04 09:57:41;;;;;;;4.43;0.80;;;10.60;99.90;;;;;;5063275;28;20056;-87
2022/11/04 10:00:15;;;;;;;1.88;0.70;;;10.60;99.90;;;;;;5061374;28;20041;-86
2022/11/04 10:03:14;;;;;;;3.00;0.80;;;10.60;99.90;;;;;;5056130;28;20095;-87
2022/11/04 10:06:42;;;;;;;1.10;0.70;;;10.70;99.90;;;;;;5100321;28;20044;-87
2022/11/04 10:09:16;;;;;;;1.25;0.60;;;10.80;99.90;;;;;;4999612;28;20438;-88
2022/11/04 10:11:50;;;;;;;4.18;0.77;;;10.80;99.90;;;;;;5030438;28;20434;-87
2022/11/04 10:14:46;;;;;;;2.72;0.82;;;10.90;99.90;;;;;;5045481;28;20060;-87
2022/11/04 10:17:34;;;;;;;1.63;0.60;;;10.90;99.90;;;;;;5070767;28;20139;-86
2022/11/04 10:20:30;;;;;;;1.40;0.60;;;10.90;99.90;;;;;;5083370;28;20053;-86
2022/11/04 10:23:33;;;;;;;0.70;0.40;;;11.10;99.90;;;;;;5058001;28;20053;-86
2022/11/04 10:26:26;;;;;;;3.15;0.70;;;11.10;99.90;;;;;;5100580;28;20882;-86
2022/11/04 10:29:01;;;;;;;2.58;0.85;;;11.10;99.90;;;;;;5075954;28;20524;-86
2022/11/04 10:31:28;;;;;;;1.27;0.50;;;11.20;99.90;;;;;;5070427;28;20048;-86
2022/11/04 10:34:10;;;;;;;4.95;0.93;;;11.20;99.90;;;;;;5099125;28;20040;-86
2022/11/04 10:36:38;;;;;;;1.63;0.60;;;11.20;99.90;;;;;;5101836;28;20083;-87
2022/11/04 10:39:17;;;;;;;2.45;0.70;;;11.30;99.90;;;;;;5100644;28;20037;-87
2022/11/04 10:41:46;;;;;;;5.35;0.88;;;11.20;99.90;;;;;;5059920;28;20068;-90
2022/11/04 10:44:20;;;;;;;3.33;0.77;;;11.20;99.90;;;;;;5070021;28;20049;-87
2022/11/04 10:47:01;;;;;;;3.40;0.98;;;11.20;99.90;;;;;;5061731;28;20037;-86
2022/11/04 10:49:56;;;;;;;2.95;0.52;;;11.20;99.90;;;;;;5057906;28;20044;-86
2022/11/04 10:52:23;;;;;;;3.03;0.70;;;11.20;99.90;;;;;;5101849;28;20056;-86
2022/11/04 10:54:50;;;;;;;1.35;0.68;;;11.30;99.90;;;;;;5034277;28;20421;-86
2022/11/04 10:57:23;;;;;;;1.25;0.70;;;11.40;99.90;;;;;;5066777;28;20044;-83
2022/11/04 10:59:59;;;;;;;1.38;0.65;;;11.40;99.90;;;;;;5070184;28;20099;-86
2022/11/04 11:02:45;;;;;;;3.08;0.80;;;11.50;99.90;;;;;;5069468;28;20112;-87
2022/11/04 11:05:23;;;;;;;6.82;1.00;;;11.50;99.90;;;;;;5070809;28;20128;-86
2022/11/04 11:07:53;;;;;;;3.95;0.68;;;11.50;99.90;;;;;;5086714;28;20052;-86
2022/11/04 11:10:27;;;;;;;1.17;0.60;;;11.50;99.90;;;;;;5062109;28;20067;-86
2022/11/04 11:13:03;;;;;;;2.33;0.82;;;11.60;99.90;;;;;;5060943;28;20037;-87
2022/11/04 11:15:35;;;;;;;4.05;0.77;;;11.60;99.90;;;;;;5088700;28;20104;-87
2022/11/04 11:18:13;;;;;;;2.10;1.10;;;11.70;99.90;;;;;;5105678;28;20048;-87
2022/11/04 11:20:42;;;;;;;1.55;0.60;;;11.70;99.90;;;;;;5086788;28;20049;-87
2022/11/04 11:23:31;;;;;;;4.20;0.80;;;11.70;99.90;;;;;;5120922;28;20112;-87
2022/11/04 11:25:58;;;;;;;3.10;1.05;;;11.80;99.90;;;;;;5118750;28;20033;-87
2022/11/04 11:28:26;;;;;;;2.80;1.00;;;11.70;99.90;;;;;;5088418;28;20044;-87
2022/11/04 11:31:03;;;;;;;6.22;1.25;;;11.70;99.90;;;;;;5070570;28;20036;-87
2022/11/04 11:33:36;;;;;;;4.10;1.05;;;11.70;99.90;;;;;;5073091;28;20087;-87
2022/11/04 11:36:11;;;;;;;2.80;0.90;;;11.60;99.90;;;;;;5084104;28;20071;-87
2022/11/04 11:39:05;;;;;;;3.88;1.00;;;11.60;99.90;;;;;;5076870;28;20035;-87
2022/11/04 11:41:53;;;;;;;4.07;1.25;;;11.60;99.90;;;;;;5096022;28;20516;-87
2022/11/04 11:44:32;;;;;;;3.25;1.25;;;11.60;99.90;;;;;;5072064;28;20029;-87
2022/11/04 11:47:05;;;;;;;3.92;1.35;;;11.70;99.90;;;;;;5075007;28;20087;-86
2022/11/04 11:49:34;;;;;;;1.80;0.80;;;11.90;99.90;;;;;;5083279;28;20038;-87
2022/11/04 11:52:35;;;;;;;3.75;1.10;;;12.00;99.90;;;;;;5089242;28;20044;-87
2022/11/04 11:55:26;;;;;;;2.72;1.10;;;12.10;99.90;;;;;;5056706;28;20070;-87
2022/11/04 11:58:12;;;;;;;3.17;1.30;;;12.10;99.90;;;;;;5081200;28;20036;-88
2022/11/04 12:01:14;;;;;;;5.82;1.23;;;12.00;99.90;;;;;;5068864;28;20444;-87
2022/11/04 12:03:46;;;;;;;4.75;1.38;;;11.90;99.90;;;;;;5070436;28;20560;-88
2022/11/04 12:06:41;;;;;;;5.13;1.30;;;11.80;99.90;;;;;;5097380;28;20048;-87
2022/11/04 12:09:18;;;;;;;4.00;1.20;;;11.70;99.90;;;;;;5115490;28;20067;-87
2022/11/04 12:12:02;;;;;;;3.85;0.90;;;11.60;99.90;;;;;;5078331;28;20445;-87
2022/11/04 12:15:03;;;;;;;4.43;0.98;;;11.60;99.90;;;;;;5091526;28;20095;-87
2022/11/04 12:18:14;;;;;;;6.78;0.90;;;11.50;99.90;;;;;;5092027;28;20052;-87
2022/11/04 12:20:53;;;;;;;3.20;0.77;;;11.60;99.90;;;;;;5035259;28;20089;-87
2022/11/04 12:23:43;;;;;;;4.30;1.23;;;11.70;99.90;;;;;;5069156;28;20052;-88
2022/11/04 12:26:30;;;;;;;5.53;1.00;;;11.70;99.90;;;;;;5091025;28;20048;-88
2022/11/04 12:29:26;;;;;;;3.72;1.00;;;11.80;99.90;;;;;;5088783;28;20040;-87
2022/11/04 12:32:09;;;;;;;6.20;1.15;;;11.80;99.90;;;;;;5081859;28;20033;-88
2022/11/04 12:34:44;;;;;;;2.53;0.82;;;11.70;99.90;;;;;;5069242;28;20179;-87
2022/11/04 12:37:21;;;;;;;3.08;0.90;;;11.70;99.90;;;;;;5069113;28;20149;-87
2022/11/04 12:40:03;;;;;;;3.10;1.00;;;11.70;99.90;;;;;;5069119;28;20094;-87
2022/11/04 12:43:02;;;;;;;3.20;0.80;;;11.70;99.90;;;;;;5103947;28;20183;-86
2022/11/04 12:45:32;;;;;;;2.97;0.50;;;11.50;99.90;;;;;;5094560;28;20075;-87
2022/11/04 12:48:36;;;;;;;2.10;0.43;;;11.40;99.90;;;;;;5123737;28;20133;-88
2022/11/04 12:51:26;;;;;;;2.78;0.55;;;11.10;99.90;;;;;;5106926;28;20037;-85
2022/11/04 12:54:00;;;;;;;2.08;0.70;;;10.70;99.90;;;;;;5093750;28;20111;-87
2022/11/04 12:56:39;;;;;;;1.80;0.47;;;10.60;99.90;;;;;;5093224;28;20036;-87
2022/11/04 12:59:25;;;;;;;2.03;0.70;;;10.50;99.90;;;;;;5057999;28;20498;-88
2022/11/04 13:02:02;;;;;;;4.53;0.88;;;10.50;99.90;;;;;;5092782;28;20051;-87
2022/11/04 13:04:35;;;;;;;1.15;0.50;;;10.50;99.90;;;;;;5094273;28;20171;-88
2022/11/04 13:07:08;;;;;;;2.38;0.50;;;10.60;99.90;;;;;;5085331;28;20032;-88
2022/11/04 13:10:07;;;;;;;2.30;1.30;;;10.70;99.90;;;;;;5093080;28;20106;-87
2022/11/04 13:12:38;;;;;;;1.90;0.63;;;10.80;99.90;;;;;;5080608;28;20048;-88
2022/11/04 13:15:18;;;;;;;3.28;0.50;;;10.90;99.90;;;;;;5092430;28;20046;-84
2022/11/04 13:17:48;;;;;;;1.65;0.60;;;10.90;99.90;;;;;;5091589;28;20063;-83
2022/11/04 13:20:35;;;;;;;0.95;0.32;;;11.00;99.90;;;;;;5125659;28;20527;-84
2022/11/04 13:23:07;;;;;;;1.65;0.70;;;11.00;99.90;;;;;;5091477;28;20056;-84
2022/11/04 13:25:40;;;;;;;5.25;0.90;;;11.00;99.90;;;;;;5091697;28;20094;-84
2022/11/04 13:28:12;;;;;;;1.38;0.60;;;11.00;99.90;;;;;;5073990;28;20091;-84
2022/11/04 13:31:23;;;;;;;1.23;0.60;;;11.00;99.90;;;;;;5071268;28;20064;-83
2022/11/04 13:33:59;;;;;;;4.88;1.15;;;11.00;99.90;;;;;;5066450;28;20149;-84
2022/11/04 13:36:46;;;;;;;2.05;0.63;;;11.00;99.90;;;;;;5121929;28;20094;-84
2022/11/04 13:39:39;;;;;;;1.90;0.50;;;11.00;99.90;;;;;;5122095;28;20155;-84
2022/11/04 13:42:30;;;;;;;2.03;0.50;;;11.00;99.90;;;;;;5104683;28;20079;-84
2022/11/04 13:45:04;;;;;;;2.22;0.70;;;11.00;99.90;;;;;;5104592;28;20037;-84
2022/11/04 13:47:43;;;;;;;2.47;0.55;;;11.00;99.90;;;;;;5121705;28;20048;-83
2022/11/04 13:50:32;;;;;;;0.82;0.60;;;11.00;99.90;;;;;;5104564;28;20090;-84
2022/11/04 13:52:59;;;;;;;4.70;0.85;;;11.00;99.90;;;;;;5103396;28;20040;-84